createdAt,value
2022-09-15T00:00:55.190Z,26.50
2022-09-15T00:03:23.363Z,26.05
2022-09-15T00:05:51.174Z,26.70
2022-09-15T00:08:18.567Z,27.85
2022-09-15T00:10:49.207Z,27.23
2022-09-15T00:13:17.332Z,29.45
2022-09-15T00:15:46.384Z,27.33
2022-09-15T00:18:13.868Z,27.77
2022-09-15T00:20:42.918Z,28.58
2022-09-15T00:23:10.596Z,27.13
2022-09-15T00:25:42.135Z,29.88
2022-09-15T00:28:09.620Z,29.58
2022-09-15T00:30:40.904Z,25.75
2022-09-15T00:33:09.809Z,30.48
2022-09-15T00:35:37.970Z,32.15
2022-09-15T00:38:05.461Z,27.67
2022-09-15T00:40:33.367Z,26.48
2022-09-15T00:45:28.226Z,24.38
2022-09-15T00:47:55.683Z,28.00
2022-09-15T00:50:24.443Z,29.50
2022-09-15T00:52:54.367Z,31.65
2022-09-15T00:55:24.861Z,29.60
2022-09-15T00:57:54.692Z,26.90
2022-09-15T01:00:23.238Z,26.83
2022-09-15T01:02:50.872Z,26.02
2022-09-15T01:05:19.561Z,26.48
2022-09-15T01:07:50.876Z,27.42
2022-09-15T01:10:20.331Z,27.85
2022-09-15T01:12:48.189Z,26.90
2022-09-15T01:15:16.133Z,29.30
2022-09-15T01:17:53.885Z,27.42
2022-09-15T01:22:56.673Z,24.48
2022-09-15T01:25:36.123Z,28.85
2022-09-15T01:28:18.069Z,32.40
2022-09-15T01:30:49.397Z,31.05
2022-09-15T01:33:22.407Z,29.15
2022-09-15T01:35:52.602Z,26.92
2022-09-15T01:38:25.840Z,24.58
2022-09-15T01:40:55.704Z,24.25
2022-09-15T01:43:24.834Z,26.58
2022-09-15T01:45:53.762Z,34.05
2022-09-15T01:48:23.204Z,25.17
2022-09-15T01:50:52.834Z,27.73
2022-09-15T01:53:21.585Z,28.77
2022-09-15T01:55:51.297Z,26.75
2022-09-15T01:58:18.706Z,26.08
2022-09-15T02:00:48.574Z,26.05
2022-09-15T02:03:21.107Z,26.10
2022-09-15T02:05:51.187Z,28.13
2022-09-15T02:08:25.334Z,27.15
2022-09-15T02:10:59.406Z,25.55
2022-09-15T02:13:31.255Z,24.83
2022-09-15T02:16:00.358Z,25.40
2022-09-15T02:18:34.692Z,25.05
2022-09-15T02:21:10.273Z,25.55
2022-09-15T02:23:39.912Z,24.00
2022-09-15T02:26:09.905Z,25.45
2022-09-15T02:28:39.264Z,24.65
2022-09-15T02:31:08.879Z,25.23
2022-09-15T02:33:41.077Z,27.15
2022-09-15T02:36:09.880Z,28.85
2022-09-15T02:38:39.564Z,27.00
2022-09-15T02:41:07.136Z,28.85
2022-09-15T02:43:34.545Z,27.23
2022-09-15T02:46:02.003Z,29.23
2022-09-15T02:48:29.488Z,30.88
2022-09-15T02:50:58.240Z,27.55
2022-09-15T02:53:25.666Z,25.52
2022-09-15T02:55:53.053Z,27.63
2022-09-15T02:58:20.509Z,29.90
2022-09-15T03:00:48.081Z,29.65
2022-09-15T03:03:15.818Z,28.52
2022-09-15T03:05:43.248Z,29.60
2022-09-15T03:08:12.041Z,28.60
2022-09-15T03:10:39.426Z,30.48
2022-09-15T03:13:07.657Z,30.67
2022-09-15T03:15:35.110Z,29.40
2022-09-15T03:18:02.649Z,32.45
2022-09-15T03:20:30.251Z,30.30
2022-09-15T03:22:57.669Z,29.48
2022-09-15T03:25:27.739Z,34.20
2022-09-15T03:27:55.162Z,33.78
2022-09-15T03:30:22.548Z,32.50
2022-09-15T03:32:49.981Z,31.00
2022-09-15T03:35:17.450Z,31.20
2022-09-15T03:37:45.622Z,29.30
2022-09-15T03:40:13.092Z,31.48
2022-09-15T03:42:41.880Z,28.90
2022-09-15T03:45:09.547Z,26.83
2022-09-15T03:47:36.946Z,29.83
2022-09-15T03:50:04.600Z,28.80
2022-09-15T03:52:32.369Z,29.45
2022-09-15T03:54:59.945Z,30.23
2022-09-15T03:57:27.357Z,29.67
2022-09-15T03:59:56.170Z,26.95
2022-09-15T04:02:23.657Z,29.38
2022-09-15T04:04:51.095Z,29.55
2022-09-15T04:07:18.510Z,28.33
2022-09-15T04:09:45.977Z,32.20
2022-09-15T04:12:13.527Z,30.23
2022-09-15T04:14:40.982Z,30.48
2022-09-15T04:17:10.601Z,30.10
2022-09-15T04:19:38.108Z,27.50
2022-09-15T04:22:05.627Z,28.00
2022-09-15T04:24:33.026Z,30.27
2022-09-15T04:27:00.493Z,30.50
2022-09-15T04:29:27.931Z,31.25
2022-09-15T04:31:55.321Z,29.10
2022-09-15T04:34:25.198Z,29.98
2022-09-15T04:36:52.669Z,30.90
2022-09-15T04:39:20.353Z,28.63
2022-09-15T04:41:47.733Z,28.63
2022-09-15T04:44:15.139Z,30.15
2022-09-15T04:46:42.632Z,29.95
2022-09-15T04:49:10.257Z,29.88
2022-09-15T04:51:39.013Z,31.27
2022-09-15T04:54:06.738Z,28.63
2022-09-15T04:56:34.195Z,31.35
2022-09-15T04:59:04.133Z,27.33
2022-09-15T05:01:35.177Z,28.40
2022-09-15T05:04:03.923Z,31.40
2022-09-15T05:06:31.420Z,29.27
2022-09-15T05:09:00.207Z,29.77
2022-09-15T05:11:28.190Z,29.27
2022-09-15T05:13:55.636Z,29.50
2022-09-15T05:16:23.873Z,32.17
2022-09-15T05:18:51.842Z,31.60
2022-09-15T05:23:47.284Z,25.77
2022-09-15T05:26:18.508Z,29.05
2022-09-15T05:28:46.140Z,27.15
2022-09-15T05:31:14.650Z,27.15
2022-09-15T05:33:42.095Z,28.27
2022-09-15T05:36:09.791Z,27.15
2022-09-15T05:38:37.340Z,29.27
2022-09-15T05:41:05.381Z,28.33
2022-09-15T05:43:34.977Z,25.65
2022-09-15T05:46:02.906Z,29.25
2022-09-15T05:48:30.631Z,28.70
2022-09-15T05:50:59.180Z,27.80
2022-09-15T05:53:26.633Z,30.13
2022-09-15T05:55:55.428Z,29.20
2022-09-15T05:58:23.264Z,27.98
2022-09-15T06:03:19.467Z,26.55
2022-09-15T06:05:47.735Z,26.45
2022-09-15T06:08:15.208Z,29.45
2022-09-15T06:10:42.990Z,27.02
2022-09-15T06:13:10.420Z,28.17
2022-09-15T06:15:37.827Z,29.63
2022-09-15T06:18:05.352Z,28.23
2022-09-15T06:20:35.582Z,27.08
2022-09-15T06:23:02.994Z,27.88
2022-09-15T06:25:30.442Z,25.92
2022-09-15T06:27:57.967Z,27.60
2022-09-15T06:30:25.332Z,26.15
2022-09-15T06:32:52.790Z,25.13
2022-09-15T06:35:20.195Z,27.20
2022-09-15T06:37:48.962Z,23.98
2022-09-15T06:40:16.561Z,25.80
2022-09-15T06:42:43.995Z,26.75
2022-09-15T06:47:39.281Z,26.40
2022-09-15T06:50:07.019Z,24.90
2022-09-15T06:52:34.600Z,27.38
2022-09-15T06:55:03.737Z,24.30
2022-09-15T06:57:31.165Z,24.08
2022-09-15T06:59:58.564Z,26.13
2022-09-15T07:02:26.159Z,24.63
2022-09-15T07:04:53.708Z,26.23
2022-09-15T07:07:21.151Z,27.83
2022-09-15T07:09:49.243Z,25.85
2022-09-15T07:12:18.117Z,25.23
2022-09-15T07:14:45.573Z,24.90
2022-09-15T07:17:13.043Z,24.27
2022-09-15T07:19:41.456Z,23.83
2022-09-15T07:22:08.899Z,24.00
2022-09-15T07:24:36.360Z,24.60
2022-09-15T07:27:03.930Z,22.10
2022-09-15T07:29:37.071Z,22.90
2022-09-15T07:32:05.810Z,22.10
2022-09-15T07:34:33.283Z,21.05
2022-09-15T07:37:00.775Z,20.80
2022-09-15T07:39:28.952Z,20.92
2022-09-15T07:41:56.376Z,22.67
2022-09-15T07:44:23.996Z,20.30
2022-09-15T07:46:52.760Z,18.60
2022-09-15T07:49:20.193Z,38.05
2022-09-15T07:51:47.801Z,24.48
2022-09-15T07:54:19.381Z,16.10
2022-09-15T07:56:49.106Z,14.80
2022-09-15T07:59:16.502Z,15.32
2022-09-15T08:01:44.016Z,17.10
2022-09-15T08:04:12.764Z,16.65
2022-09-15T08:06:40.171Z,26.63
2022-09-15T08:09:08.114Z,11.55
2022-09-15T08:14:03.492Z,13.23
2022-09-15T08:16:31.209Z,14.13
2022-09-15T08:18:59.511Z,12.25
2022-09-15T08:21:29.028Z,12.73
2022-09-15T08:23:57.536Z,17.77
2022-09-15T08:26:25.872Z,14.75
2022-09-15T08:28:53.596Z,11.80
2022-09-15T08:33:49.866Z,11.82
2022-09-15T08:36:17.232Z,12.07
2022-09-15T08:38:46.517Z,10.32
2022-09-15T08:41:15.846Z,10.52
2022-09-15T08:43:46.647Z,16.65
2022-09-15T08:46:15.612Z,9.30
2022-09-15T08:48:45.763Z,11.20
2022-09-15T08:51:15.550Z,15.50
2022-09-15T08:53:45.863Z,8.77
2022-09-15T08:56:16.987Z,8.48
2022-09-15T08:58:45.605Z,7.35
2022-09-15T09:01:20.455Z,7.60
2022-09-15T09:03:57.824Z,6.93
2022-09-15T09:06:29.137Z,6.63
2022-09-15T09:09:20.567Z,6.50
2022-09-15T09:12:06.967Z,5.68
2022-09-15T09:14:40.836Z,4.35
2022-09-15T09:17:14.151Z,5.80
2022-09-15T09:19:49.693Z,4.85
2022-09-15T09:22:18.765Z,4.63
2022-09-15T09:24:47.358Z,4.63
2022-09-15T09:27:18.176Z,3.75
2022-09-15T09:29:49.393Z,3.65
2022-09-15T09:32:21.509Z,3.65
2022-09-15T09:34:54.711Z,2.92
2022-09-15T09:37:22.487Z,2.90
2022-09-15T09:42:19.212Z,2.10
2022-09-15T09:44:47.095Z,2.22
2022-09-15T09:49:44.119Z,2.10
2022-09-15T09:52:12.392Z,2.15
2022-09-15T09:54:41.595Z,2.20
2022-09-15T09:57:29.281Z,1.90
2022-09-15T09:59:56.814Z,1.48
2022-09-15T10:02:24.660Z,1.85
2022-09-15T10:07:20.863Z,1.92
2022-09-15T10:09:50.185Z,1.55
2022-09-15T10:12:20.406Z,1.58
2022-09-15T10:14:52.506Z,1.65
2022-09-15T10:17:21.152Z,1.30
2022-09-15T10:19:49.481Z,1.92
2022-09-15T10:22:23.987Z,2.05
2022-09-15T10:24:51.575Z,1.80
2022-09-15T10:27:20.480Z,1.77
2022-09-15T10:29:49.433Z,2.10
2022-09-15T10:32:20.631Z,1.90
2022-09-15T10:34:50.527Z,1.70
2022-09-15T10:37:21.984Z,2.00
2022-09-15T10:39:53.014Z,1.60
2022-09-15T10:42:26.337Z,2.28
2022-09-15T10:45:00.951Z,2.13
2022-09-15T10:47:33.480Z,2.55
2022-09-15T10:50:12.728Z,3.60
2022-09-15T10:52:48.792Z,2.28
2022-09-15T10:55:51.120Z,2.45
2022-09-15T10:58:30.831Z,1.77
2022-09-15T11:01:05.060Z,2.08
2022-09-15T11:03:51.785Z,1.92
2022-09-15T11:06:24.835Z,1.83
2022-09-15T11:08:56.540Z,2.15
2022-09-15T11:11:28.727Z,1.88
2022-09-15T11:14:00.677Z,2.10
2022-09-15T11:16:32.990Z,1.55
2022-09-15T11:19:06.895Z,1.52
2022-09-15T11:21:35.805Z,1.75
2022-09-15T11:24:11.650Z,2.63
2022-09-15T11:26:41.211Z,2.28
2022-09-15T11:29:12.712Z,2.75
2022-09-15T11:31:42.924Z,2.47
2022-09-15T11:34:16.395Z,2.28
2022-09-15T11:36:46.380Z,1.70
2022-09-15T11:39:17.034Z,1.70
2022-09-15T11:41:49.815Z,1.60
2022-09-15T11:44:21.748Z,1.60
2022-09-15T11:47:04.080Z,1.17
2022-09-15T11:49:35.969Z,1.83
2022-09-15T11:52:08.223Z,1.05
2022-09-15T11:54:38.935Z,1.50
2022-09-15T11:57:06.961Z,1.50
2022-09-15T11:59:40.953Z,1.30
2022-09-15T12:02:16.892Z,1.40
2022-09-15T12:04:47.681Z,1.48
2022-09-15T12:07:16.592Z,1.58
2022-09-15T12:09:44.021Z,1.67
2022-09-15T12:12:15.036Z,1.52
2022-09-15T12:14:43.870Z,1.90
2022-09-15T12:17:17.281Z,1.95
2022-09-15T12:19:49.711Z,1.67
2022-09-15T12:22:19.934Z,1.23
2022-09-15T12:24:51.470Z,1.42
2022-09-15T12:27:20.236Z,1.55
2022-09-15T12:29:51.147Z,2.33
2022-09-15T12:32:21.155Z,2.25
2022-09-15T12:35:02.023Z,1.83
2022-09-15T12:37:36.351Z,2.10
2022-09-15T12:40:06.581Z,1.17
2022-09-15T12:42:35.274Z,2.35
2022-09-15T12:45:03.566Z,2.03
2022-09-15T12:47:34.189Z,1.85
2022-09-15T12:50:04.561Z,2.15
2022-09-15T12:52:32.315Z,1.30
2022-09-15T12:55:02.217Z,1.25
2022-09-15T12:57:32.302Z,1.30
2022-09-15T13:00:18.542Z,1.60
2022-09-15T13:02:48.126Z,1.48
2022-09-15T13:05:35.739Z,3.28
2022-09-15T13:08:03.140Z,1.48
2022-09-15T13:10:35.634Z,1.85
2022-09-15T13:13:09.549Z,1.65
2022-09-15T13:15:41.541Z,1.70
2022-09-15T13:18:11.110Z,1.63
2022-09-15T13:20:40.004Z,1.98
2022-09-15T13:23:09.468Z,2.00
2022-09-15T13:25:36.852Z,1.95
2022-09-15T13:28:04.859Z,2.40
2022-09-15T13:30:39.262Z,2.28
2022-09-15T13:33:13.861Z,2.20
2022-09-15T13:35:47.509Z,1.95
2022-09-15T13:38:26.342Z,1.98
2022-09-15T13:41:11.553Z,1.25
2022-09-15T13:43:53.904Z,1.88
2022-09-15T13:46:29.014Z,1.98
2022-09-15T13:49:03.921Z,1.70
2022-09-15T13:51:34.220Z,1.65
2022-09-15T13:54:03.255Z,1.42
2022-09-15T13:56:32.457Z,1.88
2022-09-15T13:59:08.157Z,1.27
2022-09-15T14:01:39.445Z,1.45
2022-09-15T14:04:08.318Z,1.65
2022-09-15T14:06:38.747Z,1.55
2022-09-15T14:09:08.468Z,1.67
2022-09-15T14:11:37.587Z,1.50
2022-09-15T14:14:06.544Z,1.33
2022-09-15T14:16:35.023Z,1.65
2022-09-15T14:19:03.852Z,1.55
2022-09-15T14:21:32.290Z,1.40
2022-09-15T14:24:04.667Z,1.50
2022-09-15T14:26:34.145Z,1.52
2022-09-15T14:29:02.501Z,1.52
2022-09-15T14:31:31.449Z,1.30
2022-09-15T14:33:59.205Z,1.58
2022-09-15T14:39:08.860Z,1.50
2022-09-15T14:41:37.316Z,1.55
2022-09-15T14:45:52.919Z,1.10
2022-09-15T14:47:11.573Z,1.10
2022-09-15T14:49:38.983Z,1.42
2022-09-15T14:52:14.311Z,0.95
2022-09-15T14:54:43.177Z,1.45
2022-09-15T14:57:11.236Z,1.70
2022-09-15T14:59:40.338Z,1.50
2022-09-15T15:02:18.176Z,1.40
2022-09-15T15:04:49.430Z,2.55
2022-09-15T15:07:19.728Z,1.25
2022-09-15T15:09:49.324Z,1.20
2022-09-15T15:12:21.640Z,1.30
2022-09-15T15:14:49.425Z,1.00
2022-09-15T15:19:44.159Z,1.15
2022-09-15T15:22:20.286Z,1.17
2022-09-15T15:24:50.167Z,1.42
2022-09-15T15:27:36.151Z,1.05
2022-09-15T15:30:19.212Z,0.98
2022-09-15T15:32:46.743Z,1.90
2022-09-15T15:35:16.425Z,1.60
2022-09-15T15:37:44.015Z,2.10
2022-09-15T15:40:17.885Z,1.50
2022-09-15T15:42:53.449Z,1.90
2022-09-15T15:45:23.854Z,2.25
2022-09-15T15:47:51.322Z,1.30
2022-09-15T15:50:21.091Z,1.52
2022-09-15T15:52:48.996Z,1.60
2022-09-15T15:57:45.704Z,3.17
2022-09-15T16:00:21.979Z,1.80
2022-09-15T16:02:49.798Z,1.88
2022-09-15T16:05:17.771Z,2.58
2022-09-15T16:10:16.358Z,1.50
2022-09-15T16:12:45.179Z,2.63
2022-09-15T16:15:13.701Z,2.53
2022-09-15T16:17:45.921Z,2.40
2022-09-15T16:20:15.753Z,2.13
2022-09-15T16:22:43.712Z,1.67
2022-09-15T16:27:38.393Z,2.75
2022-09-15T16:30:08.276Z,2.75
2022-09-15T16:32:35.670Z,2.10
2022-09-15T16:35:03.185Z,2.13
2022-09-15T16:37:30.607Z,1.60
2022-09-15T16:39:58.034Z,2.20
2022-09-15T16:42:25.479Z,1.73
2022-09-15T16:44:52.874Z,1.98
2022-09-15T16:47:21.668Z,1.45
2022-09-15T16:49:51.222Z,2.17
2022-09-15T16:52:18.802Z,2.28
2022-09-15T16:54:46.207Z,1.77
2022-09-15T16:57:13.600Z,1.80
2022-09-15T16:59:41.055Z,1.60
2022-09-15T17:02:13.322Z,1.70
2022-09-15T17:04:42.103Z,2.03
2022-09-15T17:07:09.506Z,1.50
2022-09-15T17:09:36.958Z,2.10
2022-09-15T17:12:04.968Z,1.60
2022-09-15T17:14:32.897Z,1.73
2022-09-15T17:19:27.640Z,1.60
2022-09-15T17:21:56.361Z,1.90
2022-09-15T17:24:24.043Z,1.67
2022-09-15T17:26:51.527Z,1.83
2022-09-15T17:29:18.911Z,4.05
2022-09-15T17:31:46.326Z,1.77
2022-09-15T17:34:14.418Z,1.90
2022-09-15T17:36:41.823Z,1.85
2022-09-15T17:39:10.573Z,1.55
2022-09-15T17:41:38.546Z,1.45
2022-09-15T17:44:08.750Z,1.20
2022-09-15T17:46:36.234Z,1.50
2022-09-15T17:49:03.677Z,1.48
2022-09-15T17:51:31.072Z,1.33
2022-09-15T17:53:58.532Z,1.35
2022-09-15T17:56:27.265Z,1.30
2022-09-15T17:58:54.634Z,1.60
2022-09-15T18:01:22.054Z,1.63
2022-09-15T18:03:49.960Z,1.38
2022-09-15T18:08:45.166Z,1.75
2022-09-15T18:11:14.686Z,2.05
2022-09-15T18:13:43.529Z,2.20
2022-09-15T18:16:12.957Z,1.27
2022-09-15T18:18:40.907Z,1.42
2022-09-15T18:23:37.342Z,1.52
2022-09-15T18:26:04.715Z,1.48
2022-09-15T18:28:32.101Z,2.10
2022-09-15T18:31:00.894Z,1.83
2022-09-15T18:33:28.369Z,1.38
2022-09-15T18:35:56.656Z,1.30
2022-09-15T18:38:24.379Z,1.70
2022-09-15T18:40:53.211Z,1.73
2022-09-15T18:43:21.119Z,1.63
2022-09-15T18:45:49.441Z,1.67
2022-09-15T18:48:18.413Z,1.58
2022-09-15T18:50:45.865Z,1.42
2022-09-15T18:53:14.225Z,1.75
2022-09-15T18:55:42.151Z,2.03
2022-09-15T19:00:37.276Z,1.77
2022-09-15T19:03:06.007Z,2.15
2022-09-15T19:05:34.745Z,1.55
2022-09-15T19:08:02.160Z,3.22
2022-09-15T19:10:29.591Z,2.00
2022-09-15T19:12:56.979Z,1.40
2022-09-15T19:15:24.433Z,1.30
2022-09-15T19:17:51.833Z,1.42
2022-09-15T19:20:19.508Z,1.98
2022-09-15T19:22:48.360Z,1.08
2022-09-15T19:25:15.768Z,1.50
2022-09-15T19:27:43.179Z,1.70
2022-09-15T19:30:11.852Z,1.23
2022-09-15T19:32:40.487Z,1.85
2022-09-15T19:35:09.228Z,1.90
2022-09-15T19:37:36.951Z,1.80
2022-09-15T19:40:07.715Z,1.83
2022-09-15T19:42:35.161Z,1.30
2022-09-15T19:45:02.578Z,1.20
2022-09-15T19:47:30.060Z,1.50
2022-09-15T19:49:57.931Z,1.50
2022-09-15T19:52:26.092Z,1.92
2022-09-15T19:54:53.484Z,1.77
2022-09-15T19:57:22.476Z,1.42
2022-09-15T19:59:49.904Z,3.58
2022-09-15T20:02:17.572Z,1.35
2022-09-15T20:04:45.319Z,1.70
2022-09-15T20:07:12.826Z,1.40
2022-09-15T20:09:40.259Z,1.38
2022-09-15T20:12:07.787Z,1.40
2022-09-15T20:14:36.653Z,1.48
2022-09-15T20:17:04.129Z,2.08
2022-09-15T20:19:31.620Z,1.50
2022-09-15T20:21:59.113Z,1.35
2022-09-15T20:24:26.561Z,1.50
2022-09-15T20:26:53.988Z,1.42
2022-09-15T20:29:22.752Z,1.40
2022-09-15T20:31:52.244Z,1.23
2022-09-15T20:34:19.635Z,1.27
2022-09-15T20:36:47.186Z,1.30
2022-09-15T20:39:15.426Z,1.63
2022-09-15T20:41:44.813Z,0.80
2022-09-15T20:44:12.516Z,0.90
2022-09-15T20:46:39.986Z,1.15
2022-09-15T20:49:08.889Z,0.88
2022-09-15T20:51:36.476Z,1.00
2022-09-15T20:54:04.846Z,1.67
2022-09-15T20:56:34.634Z,0.82
2022-09-15T20:59:02.187Z,0.93
2022-09-15T21:01:31.734Z,1.02
2022-09-15T21:03:59.541Z,1.13
2022-09-15T21:06:29.097Z,0.90
2022-09-15T21:08:57.728Z,1.13
2022-09-15T21:11:26.220Z,1.33
2022-09-15T21:13:53.985Z,1.30
2022-09-15T21:16:22.291Z,1.40
2022-09-15T21:18:49.960Z,1.08
2022-09-15T21:21:18.205Z,1.27
2022-09-15T21:23:47.827Z,1.10
2022-09-15T21:26:16.470Z,0.90
2022-09-15T21:28:44.873Z,1.02
2022-09-15T21:31:13.431Z,1.30
2022-09-15T21:33:40.861Z,1.08
2022-09-15T21:36:09.341Z,1.33
2022-09-15T21:38:37.716Z,1.48
2022-09-15T21:41:07.118Z,1.20
2022-09-15T21:43:36.018Z,1.30
2022-09-15T21:46:04.764Z,1.20
2022-09-15T21:48:32.617Z,1.25
2022-09-15T21:51:00.079Z,0.95
2022-09-15T21:53:27.932Z,1.60
2022-09-15T21:58:26.167Z,1.08
2022-09-15T22:00:53.899Z,1.35
2022-09-15T22:03:21.749Z,1.00
2022-09-15T22:05:49.795Z,1.50
2022-09-15T22:08:17.268Z,1.63
2022-09-15T22:10:44.887Z,0.98
2022-09-15T22:13:12.571Z,0.95
2022-09-15T22:15:41.366Z,1.02
2022-09-15T22:18:08.778Z,1.30
2022-09-15T22:20:36.168Z,1.23
2022-09-15T22:23:03.568Z,1.63
2022-09-15T22:25:31.167Z,2.45
2022-09-15T22:27:58.563Z,2.00
2022-09-15T22:30:25.994Z,1.13
2022-09-15T22:32:54.705Z,1.70
2022-09-15T22:35:22.091Z,1.40
2022-09-15T22:37:49.487Z,1.10
2022-09-15T22:40:17.742Z,1.42
2022-09-15T22:42:46.520Z,1.38
2022-09-15T22:45:13.972Z,1.33
2022-09-15T22:47:41.438Z,2.20
2022-09-15T22:50:10.483Z,1.15
2022-09-15T22:52:37.876Z,1.42
2022-09-15T22:55:05.635Z,1.33
2022-09-15T22:57:33.035Z,1.80
2022-09-15T23:00:00.416Z,1.63
2022-09-15T23:02:27.887Z,1.17
2022-09-15T23:04:55.323Z,1.60
2022-09-15T23:07:24.074Z,1.50
2022-09-15T23:09:51.501Z,1.45
2022-09-15T23:12:19.607Z,1.73
2022-09-15T23:14:47.002Z,1.42
2022-09-15T23:17:14.400Z,1.75
2022-09-15T23:19:41.795Z,1.38
2022-09-15T23:22:09.193Z,1.52
2022-09-15T23:24:37.938Z,1.30
2022-09-15T23:27:05.531Z,1.50
2022-09-15T23:29:33.063Z,1.45
2022-09-15T23:32:00.434Z,1.55
2022-09-15T23:34:27.819Z,1.20
2022-09-15T23:36:55.386Z,1.10
2022-09-15T23:39:22.932Z,1.40
2022-09-15T23:41:51.658Z,1.40
2022-09-15T23:44:19.199Z,1.23
2022-09-15T23:46:46.651Z,1.95
2022-09-15T23:49:18.474Z,1.20
2022-09-15T23:51:46.225Z,1.52
2022-09-15T23:54:13.683Z,1.40
2022-09-15T23:56:41.127Z,1.77
2022-09-15T23:59:09.907Z,1.60
